sensor_id;sensor_type;location;lat;lon;timestamp;pressure;altitude;pressure_sealevel;temperature;humidity
12358;BME280;6243;51.244;6.774;2023-02-03T00:01:42;150600.03;;;12.45;100.00
12358;BME280;6243;51.244;6.774;2023-02-03T00:04:08;150598.75;;;12.44;100.00
12358;BME280;6243;51.244;6.774;2023-02-03T00:06:34;150597.44;;;12.44;100.00
12358;BME280;6243;51.244;6.774;2023-02-03T00:08:59;150587.28;;;12.40;100.00
12358;BME280;6243;51.244;6.774;2023-02-03T00:11:28;150601.31;;;12.45;100.00
12358;BME280;6243;51.244;6.774;2023-02-03T00:13:54;150606.38;;;12.47;100.00
12358;BME280;6243;51.244;6.774;2023-02-03T00:16:20;150588.56;;;12.40;100.00
12358;BME280;6243;51.244;6.774;2023-02-03T00:18:45;150589.84;;;12.41;100.00
12358;BME280;6243;51.244;6.774;2023-02-03T00:21:11;150612.75;;;12.50;100.00
12358;BME280;6243;51.244;6.774;2023-02-03T00:23:36;150597.44;;;12.44;100.00
12358;BME280;6243;51.244;6.774;2023-02-03T00:26:06;150589.84;;;12.41;100.00
12358;BME280;6243;51.244;6.774;2023-02-03T00:28:33;150526.22;;;12.16;100.00
12358;BME280;6243;51.244;6.774;2023-02-03T00:30:58;150570.75;;;12.33;100.00
12358;BME280;6243;51.244;6.774;2023-02-03T00:33:24;150600.03;;;12.45;100.00
12358;BME280;6243;51.244;6.774;2023-02-03T00:35:49;150572.03;;;12.34;100.00
12358;BME280;6243;51.244;6.774;2023-02-03T00:38:15;150577.09;;;12.36;100.00
12358;BME280;6243;51.244;6.774;2023-02-03T00:40:41;150551.63;;;12.26;100.00
12358;BME280;6243;51.244;6.774;2023-02-03T00:43:06;150573.31;;;12.34;100.00
12358;BME280;6243;51.244;6.774;2023-02-03T00:45:33;150558.00;;;12.28;100.00
12358;BME280;6243;51.244;6.774;2023-02-03T00:47:59;150467.66;;;11.92;100.00
12358;BME280;6243;51.244;6.774;2023-02-03T00:50:24;150470.19;;;11.93;100.00
12358;BME280;6243;51.244;6.774;2023-02-03T00:52:50;150465.09;;;11.91;100.00
12358;BME280;6243;51.244;6.774;2023-02-03T00:55:16;150435.84;;;11.80;100.00
12358;BME280;6243;51.244;6.774;2023-02-03T00:57:41;150449.84;;;11.85;100.00
12358;BME280;6243;51.244;6.774;2023-02-03T01:00:08;150444.75;;;11.83;100.00
12358;BME280;6243;51.244;6.774;2023-02-03T01:02:35;150412.94;;;11.71;100.00
12358;BME280;6243;51.244;6.774;2023-02-03T01:05:01;150434.59;;;11.79;100.00
12358;BME280;6243;51.244;6.774;2023-02-03T01:07:30;150451.13;;;11.86;100.00
12358;BME280;6243;51.244;6.774;2023-02-03T01:09:55;150454.94;;;11.87;100.00
12358;BME280;6243;51.244;6.774;2023-02-03T01:12:21;150456.22;;;11.88;100.00
12358;BME280;6243;51.244;6.774;2023-02-03T01:14:46;150452.41;;;11.86;100.00
12358;BME280;6243;51.244;6.774;2023-02-03T01:17:12;150457.50;;;11.88;100.00
12358;BME280;6243;51.244;6.774;2023-02-03T01:19:39;150457.50;;;11.88;100.00
12358;BME280;6243;51.244;6.774;2023-02-03T01:22:04;150457.50;;;11.88;100.00
12358;BME280;6243;51.244;6.774;2023-02-03T01:24:30;150476.56;;;11.96;100.00
12358;BME280;6243;51.244;6.774;2023-02-03T01:26:56;150461.31;;;11.90;100.00
12358;BME280;6243;51.244;6.774;2023-02-03T01:29:21;150470.19;;;11.93;100.00
12358;BME280;6243;51.244;6.774;2023-02-03T01:31:47;150456.22;;;11.88;100.00
12358;BME280;6243;51.244;6.774;2023-02-03T01:34:13;150458.72;;;11.89;100.00
12358;BME280;6243;51.244;6.774;2023-02-03T01:36:41;150470.19;;;11.93;100.00
12358;BME280;6243;51.244;6.774;2023-02-03T01:39:06;150462.59;;;11.90;100.00
12358;BME280;6243;51.244;6.774;2023-02-03T01:41:36;150470.19;;;11.93;100.00
12358;BME280;6243;51.244;6.774;2023-02-03T01:44:34;150439.69;;;11.81;100.00
12358;BME280;6243;51.244;6.774;2023-02-03T01:47:01;150444.75;;;11.83;100.00
12358;BME280;6243;51.244;6.774;2023-02-03T01:49:30;150447.28;;;11.84;100.00
12358;BME280;6243;51.244;6.774;2023-02-03T01:52:01;150461.31;;;11.90;100.00
12358;BME280;6243;51.244;6.774;2023-02-03T01:54:30;150467.66;;;11.92;100.00
12358;BME280;6243;51.244;6.774;2023-02-03T01:57:00;150460.00;;;11.89;100.00
12358;BME280;6243;51.244;6.774;2023-02-03T01:59:29;150439.69;;;11.81;100.00
12358;BME280;6243;51.244;6.774;2023-02-03T02:01:56;150444.75;;;11.83;100.00
12358;BME280;6243;51.244;6.774;2023-02-03T02:04:25;150453.66;;;11.87;100.00
12358;BME280;6243;51.244;6.774;2023-02-03T02:06:55;150472.75;;;11.94;100.00
12358;BME280;6243;51.244;6.774;2023-02-03T02:09:23;150488.00;;;12.00;100.00
12358;BME280;6243;51.244;6.774;2023-02-03T02:11:49;150479.13;;;11.97;100.00
12358;BME280;6243;51.244;6.774;2023-02-03T02:14:14;150454.94;;;11.87;100.00
12358;BME280;6243;51.244;6.774;2023-02-03T02:16:48;150491.84;;;12.02;100.00
12358;BME280;6243;51.244;6.774;2023-02-03T02:19:41;150490.56;;;12.01;100.00
12358;BME280;6243;51.244;6.774;2023-02-03T02:22:17;150481.63;;;11.98;100.00
12358;BME280;6243;51.244;6.774;2023-02-03T02:25:16;150479.13;;;11.97;100.00
12358;BME280;6243;51.244;6.774;2023-02-03T02:28:22;150475.31;;;11.95;100.00
12358;BME280;6243;51.244;6.774;2023-02-03T02:31:11;150490.56;;;12.01;100.00
12358;BME280;6243;51.244;6.774;2023-02-03T02:33:52;150504.53;;;12.07;100.00
12358;BME280;6243;51.244;6.774;2023-02-03T02:36:29;150494.38;;;12.03;100.00
12358;BME280;6243;51.244;6.774;2023-02-03T02:39:02;150490.56;;;12.01;100.00
12358;BME280;6243;51.244;6.774;2023-02-03T02:41:38;150502.03;;;12.06;100.00
12358;BME280;6243;51.244;6.774;2023-02-03T02:44:08;150490.56;;;12.01;100.00
12358;BME280;6243;51.244;6.774;2023-02-03T02:46:39;150500.75;;;12.05;100.00
12358;BME280;6243;51.244;6.774;2023-02-03T02:49:11;150508.38;;;12.08;100.00
12358;BME280;6243;51.244;6.774;2023-02-03T02:51:40;150505.81;;;12.07;100.00
12358;BME280;6243;51.244;6.774;2023-02-03T02:54:09;150500.75;;;12.05;100.00
12358;BME280;6243;51.244;6.774;2023-02-03T02:56:38;150499.47;;;12.05;100.00
12358;BME280;6243;51.244;6.774;2023-02-03T02:59:05;150532.56;;;12.18;100.00
12358;BME280;6243;51.244;6.774;2023-02-03T03:01:31;150519.84;;;12.13;100.00
12358;BME280;6243;51.244;6.774;2023-02-03T03:03:59;150504.53;;;12.07;100.00
12358;BME280;6243;51.244;6.774;2023-02-03T03:06:32;150498.22;;;12.04;100.00
12358;BME280;6243;51.244;6.774;2023-02-03T03:09:02;150500.75;;;12.05;100.00
12358;BME280;6243;51.244;6.774;2023-02-03T03:11:32;150480.41;;;11.97;100.00
12358;BME280;6243;51.244;6.774;2023-02-03T03:14:01;150513.47;;;12.10;100.00
12358;BME280;6243;51.244;6.774;2023-02-03T03:16:32;150495.66;;;12.03;100.00
12358;BME280;6243;51.244;6.774;2023-02-03T03:19:01;150465.09;;;11.91;100.00
12358;BME280;6243;51.244;6.774;2023-02-03T03:21:33;150482.91;;;11.98;100.00
12358;BME280;6243;51.244;6.774;2023-02-03T03:24:03;150530.00;;;12.17;100.00
12358;BME280;6243;51.244;6.774;2023-02-03T03:26:34;150472.75;;;11.94;100.00
12358;BME280;6243;51.244;6.774;2023-02-03T03:29:06;150485.47;;;11.99;100.00
12358;BME280;6243;51.244;6.774;2023-02-03T03:31:38;150465.09;;;11.91;100.00
12358;BME280;6243;51.244;6.774;2023-02-03T03:34:04;150453.66;;;11.87;100.00
12358;BME280;6243;51.244;6.774;2023-02-03T03:36:39;150444.75;;;11.83;100.00
12358;BME280;6243;51.244;6.774;2023-02-03T03:39:12;150465.09;;;11.91;100.00
12358;BME280;6243;51.244;6.774;2023-02-03T03:41:46;150486.78;;;12.00;100.00
12358;BME280;6243;51.244;6.774;2023-02-03T03:44:15;150463.88;;;11.91;100.00
12358;BME280;6243;51.244;6.774;2023-02-03T03:46:45;150472.75;;;11.94;100.00
12358;BME280;6243;51.244;6.774;2023-02-03T03:49:14;150461.31;;;11.90;100.00
12358;BME280;6243;51.244;6.774;2023-02-03T03:51:46;150477.84;;;11.96;100.00
12358;BME280;6243;51.244;6.774;2023-02-03T03:54:15;150490.56;;;12.01;100.00
12358;BME280;6243;51.244;6.774;2023-02-03T03:56:46;150488.00;;;12.00;100.00
12358;BME280;6243;51.244;6.774;2023-02-03T03:59:15;150491.84;;;12.02;100.00
12358;BME280;6243;51.244;6.774;2023-02-03T04:01:43;150490.56;;;12.01;100.00
12358;BME280;6243;51.244;6.774;2023-02-03T04:04:10;150499.47;;;12.05;100.00
12358;BME280;6243;51.244;6.774;2023-02-03T04:06:37;150465.09;;;11.91;100.00
12358;BME280;6243;51.244;6.774;2023-02-03T04:09:05;150444.75;;;11.83;100.00
12358;BME280;6243;51.244;6.774;2023-02-03T04:11:30;150458.72;;;11.89;100.00
12358;BME280;6243;51.244;6.774;2023-02-03T04:13:56;150471.47;;;11.94;100.00
12358;BME280;6243;51.244;6.774;2023-02-03T04:16:21;150412.94;;;11.71;100.00
12358;BME280;6243;51.244;6.774;2023-02-03T04:18:47;150477.84;;;11.96;100.00
12358;BME280;6243;51.244;6.774;2023-02-03T04:21:12;150482.91;;;11.98;100.00
12358;BME280;6243;51.244;6.774;2023-02-03T04:23:38;150485.47;;;11.99;100.00
12358;BME280;6243;51.244;6.774;2023-02-03T04:26:05;150470.19;;;11.93;100.00
12358;BME280;6243;51.244;6.774;2023-02-03T04:28:30;150481.63;;;11.98;100.00
12358;BME280;6243;51.244;6.774;2023-02-03T04:30:59;150453.66;;;11.87;100.00
12358;BME280;6243;51.244;6.774;2023-02-03T04:33:25;150383.63;;;11.59;100.00
12358;BME280;6243;51.244;6.774;2023-02-03T04:35:50;150454.94;;;11.87;100.00
12358;BME280;6243;51.244;6.774;2023-02-03T04:38:16;150476.56;;;11.96;100.00
12358;BME280;6243;51.244;6.774;2023-02-03T04:40:41;150481.63;;;11.98;100.00
12358;BME280;6243;51.244;6.774;2023-02-03T04:43:08;150505.81;;;12.07;100.00
12358;BME280;6243;51.244;6.774;2023-02-03T04:45:34;150495.66;;;12.03;100.00
12358;BME280;6243;51.244;6.774;2023-02-03T04:47:59;150488.00;;;12.00;100.00
12358;BME280;6243;51.244;6.774;2023-02-03T04:50:25;150493.09;;;12.02;100.00
12358;BME280;6243;51.244;6.774;2023-02-03T04:52:50;150493.09;;;12.02;100.00
12358;BME280;6243;51.244;6.774;2023-02-03T04:55:16;150500.75;;;12.05;100.00
12358;BME280;6243;51.244;6.774;2023-02-03T04:57:41;150510.91;;;12.09;100.00
12358;BME280;6243;51.244;6.774;2023-02-03T05:00:10;150486.78;;;12.00;100.00
12358;BME280;6243;51.244;6.774;2023-02-03T05:02:36;150488.00;;;12.00;100.00
12358;BME280;6243;51.244;6.774;2023-02-03T05:05:02;150503.31;;;12.06;100.00
12358;BME280;6243;51.244;6.774;2023-02-03T05:07:27;150493.09;;;12.02;100.00
12358;BME280;6243;51.244;6.774;2023-02-03T05:09:53;150490.56;;;12.01;100.00
12358;BME280;6243;51.244;6.774;2023-02-03T05:12:19;150470.19;;;11.93;100.00
12358;BME280;6243;51.244;6.774;2023-02-03T05:14:44;150482.91;;;11.98;100.00
12358;BME280;6243;51.244;6.774;2023-02-03T05:17:11;150494.38;;;12.03;100.00
12358;BME280;6243;51.244;6.774;2023-02-03T05:19:37;150491.84;;;12.02;100.00
12358;BME280;6243;51.244;6.774;2023-02-03T05:22:03;150503.31;;;12.06;100.00
12358;BME280;6243;51.244;6.774;2023-02-03T05:24:28;150503.31;;;12.06;100.00
12358;BME280;6243;51.244;6.774;2023-02-03T05:26:54;150481.63;;;11.98;100.00
12358;BME280;6243;51.244;6.774;2023-02-03T05:29:19;150482.91;;;11.98;100.00
12358;BME280;6243;51.244;6.774;2023-02-03T05:31:45;150498.22;;;12.04;100.00
12358;BME280;6243;51.244;6.774;2023-02-03T05:34:12;150481.63;;;11.98;100.00
12358;BME280;6243;51.244;6.774;2023-02-03T05:36:37;150477.84;;;11.96;100.00
12358;BME280;6243;51.244;6.774;2023-02-03T05:39:03;150467.66;;;11.92;100.00
12358;BME280;6243;51.244;6.774;2023-02-03T05:41:29;150491.84;;;12.02;100.00
12358;BME280;6243;51.244;6.774;2023-02-03T05:43:54;150505.81;;;12.07;100.00
12358;BME280;6243;51.244;6.774;2023-02-03T05:46:20;150500.75;;;12.05;100.00
12358;BME280;6243;51.244;6.774;2023-02-03T05:48:45;150500.75;;;12.05;100.00
12358;BME280;6243;51.244;6.774;2023-02-03T05:51:12;150494.38;;;12.03;100.00
12358;BME280;6243;51.244;6.774;2023-02-03T05:53:38;150509.66;;;12.09;100.00
12358;BME280;6243;51.244;6.774;2023-02-03T05:56:04;150526.22;;;12.16;100.00
12358;BME280;6243;51.244;6.774;2023-02-03T05:58:30;150493.09;;;12.02;100.00
12358;BME280;6243;51.244;6.774;2023-02-03T06:00:55;150521.13;;;12.14;100.00
12358;BME280;6243;51.244;6.774;2023-02-03T06:03:21;150518.56;;;12.13;100.00
12358;BME280;6243;51.244;6.774;2023-02-03T06:05:46;150526.22;;;12.16;100.00
12358;BME280;6243;51.244;6.774;2023-02-03T06:08:13;150513.47;;;12.10;100.00
12358;BME280;6243;51.244;6.774;2023-02-03T06:10:39;150508.38;;;12.08;100.00
12358;BME280;6243;51.244;6.774;2023-02-03T06:13:08;150509.66;;;12.09;100.00
12358;BME280;6243;51.244;6.774;2023-02-03T06:15:34;150512.19;;;12.10;100.00
12358;BME280;6243;51.244;6.774;2023-02-03T06:18:00;150488.00;;;12.00;100.00
12358;BME280;6243;51.244;6.774;2023-02-03T06:20:25;150495.66;;;12.03;100.00
12358;BME280;6243;51.244;6.774;2023-02-03T06:22:51;150513.47;;;12.10;100.00
12358;BME280;6243;51.244;6.774;2023-02-03T06:25:18;150516.00;;;12.11;100.00
12358;BME280;6243;51.244;6.774;2023-02-03T06:27:44;150523.66;;;12.15;100.00
12358;BME280;6243;51.244;6.774;2023-02-03T06:30:10;150526.22;;;12.16;100.00
12358;BME280;6243;51.244;6.774;2023-02-03T06:32:36;150524.94;;;12.15;100.00
12358;BME280;6243;51.244;6.774;2023-02-03T06:35:02;150522.34;;;12.14;100.00
12358;BME280;6243;51.244;6.774;2023-02-03T06:37:29;150513.47;;;12.10;100.00
12358;BME280;6243;51.244;6.774;2023-02-03T06:39:54;150500.75;;;12.05;100.00
12358;BME280;6243;51.244;6.774;2023-02-03T06:42:21;150516.00;;;12.11;100.00
12358;BME280;6243;51.244;6.774;2023-02-03T06:44:47;150499.47;;;12.05;100.00
12358;BME280;6243;51.244;6.774;2023-02-03T06:47:12;150490.56;;;12.01;100.00
12358;BME280;6243;51.244;6.774;2023-02-03T06:49:38;150481.63;;;11.98;100.00
12358;BME280;6243;51.244;6.774;2023-02-03T06:52:04;150488.00;;;12.00;100.00
12358;BME280;6243;51.244;6.774;2023-02-03T06:54:29;150486.78;;;12.00;100.00
12358;BME280;6243;51.244;6.774;2023-02-03T06:56:55;150472.75;;;11.94;100.00
12358;BME280;6243;51.244;6.774;2023-02-03T06:59:22;150493.09;;;12.02;100.00
12358;BME280;6243;51.244;6.774;2023-02-03T07:01:47;150493.09;;;12.02;100.00
12358;BME280;6243;51.244;6.774;2023-02-03T07:04:13;150509.66;;;12.09;100.00
12358;BME280;6243;51.244;6.774;2023-02-03T07:06:38;150518.56;;;12.13;100.00
12358;BME280;6243;51.244;6.774;2023-02-03T07:09:05;150528.72;;;12.17;100.00
12358;BME280;6243;51.244;6.774;2023-02-03T07:11:31;150532.56;;;12.18;100.00
12358;BME280;6243;51.244;6.774;2023-02-03T07:13:57;150528.72;;;12.17;100.00
12358;BME280;6243;51.244;6.774;2023-02-03T07:16:24;150538.94;;;12.21;100.00
12358;BME280;6243;51.244;6.774;2023-02-03T07:18:49;150516.00;;;12.11;100.00
12358;BME280;6243;51.244;6.774;2023-02-03T07:21:16;150528.72;;;12.17;100.00
12358;BME280;6243;51.244;6.774;2023-02-03T07:23:41;150521.13;;;12.14;100.00
12358;BME280;6243;51.244;6.774;2023-02-03T07:26:08;150519.84;;;12.13;100.00
12358;BME280;6243;51.244;6.774;2023-02-03T07:28:35;150527.50;;;12.16;100.00
12358;BME280;6243;51.244;6.774;2023-02-03T07:31:01;150512.19;;;12.10;100.00
12358;BME280;6243;51.244;6.774;2023-02-03T07:33:28;150519.84;;;12.13;100.00
12358;BME280;6243;51.244;6.774;2023-02-03T07:35:53;150521.13;;;12.14;100.00
12358;BME280;6243;51.244;6.774;2023-02-03T07:38:19;150532.56;;;12.18;100.00
12358;BME280;6243;51.244;6.774;2023-02-03T07:40:45;150551.63;;;12.26;100.00
12358;BME280;6243;51.244;6.774;2023-02-03T07:43:11;150544.03;;;12.23;100.00
12358;BME280;6243;51.244;6.774;2023-02-03T07:45:36;150535.09;;;12.19;100.00
12358;BME280;6243;51.244;6.774;2023-02-03T07:48:03;150546.56;;;12.24;100.00
12358;BME280;6243;51.244;6.774;2023-02-03T07:50:30;150510.91;;;12.09;100.00
12358;BME280;6243;51.244;6.774;2023-02-03T07:52:56;150537.66;;;12.20;100.00
12358;BME280;6243;51.244;6.774;2023-02-03T07:55:21;150538.94;;;12.21;100.00
12358;BME280;6243;51.244;6.774;2023-02-03T07:57:47;150541.47;;;12.22;100.00
12358;BME280;6243;51.244;6.774;2023-02-03T08:00:15;150541.47;;;12.22;100.00
12358;BME280;6243;51.244;6.774;2023-02-03T08:02:41;150535.09;;;12.19;100.00
12358;BME280;6243;51.244;6.774;2023-02-03T08:05:07;150552.91;;;12.26;100.00
12358;BME280;6243;51.244;6.774;2023-02-03T08:07:34;150625.50;;;12.55;100.00
12358;BME280;6243;51.244;6.774;2023-02-03T08:10:00;150564.38;;;12.31;100.00
12358;BME280;6243;51.244;6.774;2023-02-03T08:12:26;150628.03;;;12.56;100.00
12358;BME280;6243;51.244;6.774;2023-02-03T08:14:51;150638.19;;;12.60;100.00
12358;BME280;6243;51.244;6.774;2023-02-03T08:17:17;150625.50;;;12.55;100.00
12358;BME280;6243;51.244;6.774;2023-02-03T08:19:43;150628.03;;;12.56;100.00
12358;BME280;6243;51.244;6.774;2023-02-03T08:22:09;150652.22;;;12.65;100.00
12358;BME280;6243;51.244;6.774;2023-02-03T08:24:36;150656.03;;;12.67;100.00
12358;BME280;6243;51.244;6.774;2023-02-03T08:27:01;150642.03;;;12.61;100.00
12358;BME280;6243;51.244;6.774;2023-02-03T08:29:27;150661.09;;;12.69;100.00
12358;BME280;6243;51.244;6.774;2023-02-03T08:31:53;150647.13;;;12.63;100.00
12358;BME280;6243;51.244;6.774;2023-02-03T08:34:18;150647.13;;;12.63;100.00
12358;BME280;6243;51.244;6.774;2023-02-03T08:36:44;150662.38;;;12.69;100.00
12358;BME280;6243;51.244;6.774;2023-02-03T08:39:11;150662.38;;;12.69;100.00
12358;BME280;6243;51.244;6.774;2023-02-03T08:41:38;150671.34;;;12.73;100.00
12358;BME280;6243;51.244;6.774;2023-02-03T08:44:03;150662.38;;;12.69;100.00
12358;BME280;6243;51.244;6.774;2023-02-03T08:46:29;150587.28;;;12.40;100.00
12358;BME280;6243;51.244;6.774;2023-02-03T08:48:54;150569.47;;;12.33;100.00
12358;BME280;6243;51.244;6.774;2023-02-03T08:51:20;150550.41;;;12.25;100.00
12358;BME280;6243;51.244;6.774;2023-02-03T08:53:46;150546.56;;;12.24;100.00
12358;BME280;6243;51.244;6.774;2023-02-03T08:56:12;150521.13;;;12.14;100.00
12358;BME280;6243;51.244;6.774;2023-02-03T08:58:39;150545.25;;;12.23;100.00
12358;BME280;6243;51.244;6.774;2023-02-03T09:01:06;150542.75;;;12.22;100.00
12358;BME280;6243;51.244;6.774;2023-02-03T09:03:32;150530.00;;;12.17;100.00
12358;BME280;6243;51.244;6.774;2023-02-03T09:05:58;150531.28;;;12.18;100.00
12358;BME280;6243;51.244;6.774;2023-02-03T09:08:24;150522.34;;;12.14;100.00
12358;BME280;6243;51.244;6.774;2023-02-03T09:10:49;150519.84;;;12.13;100.00
12358;BME280;6243;51.244;6.774;2023-02-03T09:13:15;150536.38;;;12.20;100.00
12358;BME280;6243;51.244;6.774;2023-02-03T09:15:42;150530.00;;;12.17;100.00
12358;BME280;6243;51.244;6.774;2023-02-03T09:18:08;150530.00;;;12.17;100.00
12358;BME280;6243;51.244;6.774;2023-02-03T09:20:33;150521.13;;;12.14;100.00
12358;BME280;6243;51.244;6.774;2023-02-03T09:22:59;150507.09;;;12.08;100.00
12358;BME280;6243;51.244;6.774;2023-02-03T09:25:25;150535.09;;;12.19;100.00
12358;BME280;6243;51.244;6.774;2023-02-03T09:27:50;150491.84;;;12.02;100.00
12358;BME280;6243;51.244;6.774;2023-02-03T09:30:16;150526.22;;;12.16;100.00
12358;BME280;6243;51.244;6.774;2023-02-03T09:32:43;150528.72;;;12.17;100.00
12358;BME280;6243;51.244;6.774;2023-02-03T09:35:09;150527.50;;;12.16;100.00
12358;BME280;6243;51.244;6.774;2023-02-03T09:37:35;150538.94;;;12.21;100.00
12358;BME280;6243;51.244;6.774;2023-02-03T09:40:01;150523.66;;;12.15;100.00
12358;BME280;6243;51.244;6.774;2023-02-03T09:42:54;150528.72;;;12.17;100.00
12358;BME280;6243;51.244;6.774;2023-02-03T09:45:25;150522.34;;;12.14;100.00
12358;BME280;6243;51.244;6.774;2023-02-03T09:47:53;150518.56;;;12.13;100.00
12358;BME280;6243;51.244;6.774;2023-02-03T09:50:23;150531.28;;;12.18;100.00
12358;BME280;6243;51.244;6.774;2023-02-03T09:52:49;150523.66;;;12.15;100.00
12358;BME280;6243;51.244;6.774;2023-02-03T09:55:25;150530.00;;;12.17;100.00
12358;BME280;6243;51.244;6.774;2023-02-03T09:57:55;150523.66;;;12.15;100.00
12358;BME280;6243;51.244;6.774;2023-02-03T10:00:27;150522.34;;;12.14;100.00
12358;BME280;6243;51.244;6.774;2023-02-03T10:02:58;150528.72;;;12.17;100.00
12358;BME280;6243;51.244;6.774;2023-02-03T10:05:37;150519.84;;;12.13;100.00
12358;BME280;6243;51.244;6.774;2023-02-03T10:08:13;150504.53;;;12.07;100.00
12358;BME280;6243;51.244;6.774;2023-02-03T10:10:46;150508.38;;;12.08;100.00
12358;BME280;6243;51.244;6.774;2023-02-03T10:13:22;150521.13;;;12.14;100.00
12358;BME280;6243;51.244;6.774;2023-02-03T10:16:08;150516.00;;;12.11;100.00
12358;BME280;6243;51.244;6.774;2023-02-03T10:18:40;150514.75;;;12.11;100.00
12358;BME280;6243;51.244;6.774;2023-02-03T10:21:13;150491.84;;;12.02;100.00
12358;BME280;6243;51.244;6.774;2023-02-03T10:23:42;150518.56;;;12.13;100.00
12358;BME280;6243;51.244;6.774;2023-02-03T10:26:13;150514.75;;;12.11;100.00
12358;BME280;6243;51.244;6.774;2023-02-03T10:28:47;150494.38;;;12.03;100.00
12358;BME280;6243;51.244;6.774;2023-02-03T10:31:18;150517.28;;;12.12;100.00
12358;BME280;6243;51.244;6.774;2023-02-03T10:33:46;150514.75;;;12.11;100.00
12358;BME280;6243;51.244;6.774;2023-02-03T10:36:18;150513.47;;;12.10;100.00
12358;BME280;6243;51.244;6.774;2023-02-03T10:38:50;150512.19;;;12.10;100.00
12358;BME280;6243;51.244;6.774;2023-02-03T10:41:20;150536.38;;;12.20;100.00
12358;BME280;6243;51.244;6.774;2023-02-03T10:43:48;150530.00;;;12.17;100.00
12358;BME280;6243;51.244;6.774;2023-02-03T10:46:15;150540.19;;;12.21;100.00
12358;BME280;6243;51.244;6.774;2023-02-03T10:48:41;150551.63;;;12.26;100.00
12358;BME280;6243;51.244;6.774;2023-02-03T10:51:14;150555.47;;;12.27;100.00
12358;BME280;6243;51.244;6.774;2023-02-03T10:53:42;150550.41;;;12.25;100.00
12358;BME280;6243;51.244;6.774;2023-02-03T10:56:09;150561.84;;;12.30;100.00
12358;BME280;6243;51.244;6.774;2023-02-03T10:58:37;150564.38;;;12.31;100.00
12358;BME280;6243;51.244;6.774;2023-02-03T11:01:09;150564.38;;;12.31;100.00
12358;BME280;6243;51.244;6.774;2023-02-03T11:03:37;150584.75;;;12.39;100.00
12358;BME280;6243;51.244;6.774;2023-02-03T11:06:08;150584.75;;;12.39;100.00
12358;BME280;6243;51.244;6.774;2023-02-03T11:08:37;150594.94;;;12.43;100.00
12358;BME280;6243;51.244;6.774;2023-02-03T11:11:05;150602.53;;;12.46;100.00
12358;BME280;6243;51.244;6.774;2023-02-03T11:13:31;150620.38;;;12.53;100.00
12358;BME280;6243;51.244;6.774;2023-02-03T11:15:59;150592.38;;;12.42;100.00
12358;BME280;6243;51.244;6.774;2023-02-03T11:18:36;150617.84;;;12.52;100.00
12358;BME280;6243;51.244;6.774;2023-02-03T11:21:06;150635.66;;;12.59;100.00
12358;BME280;6243;51.244;6.774;2023-02-03T11:23:33;150643.28;;;12.62;100.00
12358;BME280;6243;51.244;6.774;2023-02-03T11:26:08;150648.41;;;12.64;100.00
12358;BME280;6243;51.244;6.774;2023-02-03T11:28:35;150645.84;;;12.63;100.00
12358;BME280;6243;51.244;6.774;2023-02-03T11:31:01;150647.13;;;12.63;100.00
12358;BME280;6243;51.244;6.774;2023-02-03T11:33:27;150648.41;;;12.64;100.00
12358;BME280;6243;51.244;6.774;2023-02-03T11:35:55;150656.03;;;12.67;100.00
12358;BME280;6243;51.244;6.774;2023-02-03T11:38:29;150649.66;;;12.64;100.00
12358;BME280;6243;51.244;6.774;2023-02-03T11:40:58;150633.09;;;12.58;100.00
12358;BME280;6243;51.244;6.774;2023-02-03T11:43:26;150630.59;;;12.57;100.00
12358;BME280;6243;51.244;6.774;2023-02-03T11:45:53;150628.03;;;12.56;100.00
12358;BME280;6243;51.244;6.774;2023-02-03T11:48:27;150620.38;;;12.53;100.00
12358;BME280;6243;51.244;6.774;2023-02-03T11:51:01;150606.38;;;12.47;100.00
12358;BME280;6243;51.244;6.774;2023-02-03T11:53:35;150700.56;;;12.84;100.00
12358;BME280;6243;51.244;6.774;2023-02-03T11:56:14;150633.09;;;12.58;100.00
12358;BME280;6243;51.244;6.774;2023-02-03T12:04:42;150735.00;;;12.98;100.00
12358;BME280;6243;51.244;6.774;2023-02-03T12:07:34;150727.34;;;12.95;100.00
12358;BME280;6243;51.244;6.774;2023-02-03T12:10:11;150748.97;;;13.04;100.00
12358;BME280;6243;51.244;6.774;2023-02-03T12:12:49;150748.97;;;13.04;100.00
12358;BME280;6243;51.244;6.774;2023-02-03T12:15:33;150752.84;;;13.05;100.00
12358;BME280;6243;51.244;6.774;2023-02-03T12:18:12;150746.47;;;13.03;100.00
12358;BME280;6243;51.244;6.774;2023-02-03T12:20:51;150743.91;;;13.02;100.00
12358;BME280;6243;51.244;6.774;2023-02-03T12:23:29;150775.75;;;13.14;100.00
12358;BME280;6243;51.244;6.774;2023-02-03T12:26:06;150780.91;;;13.16;100.00
12358;BME280;6243;51.244;6.774;2023-02-03T12:28:47;150766.88;;;13.11;100.00
12358;BME280;6243;51.244;6.774;2023-02-03T12:31:22;150764.28;;;13.10;100.00
12358;BME280;6243;51.244;6.774;2023-02-03T12:33:54;150768.16;;;13.11;100.00
12358;BME280;6243;51.244;6.774;2023-02-03T12:36:24;150751.56;;;13.05;100.00
12358;BME280;6243;51.244;6.774;2023-02-03T12:38:53;150778.34;;;13.15;100.00
12358;BME280;6243;51.244;6.774;2023-02-03T12:41:24;150787.22;;;13.19;100.00
12358;BME280;6243;51.244;6.774;2023-02-03T12:43:52;150791.06;;;13.20;100.00
12358;BME280;6243;51.244;6.774;2023-02-03T12:46:23;150798.69;;;13.23;100.00
12358;BME280;6243;51.244;6.774;2023-02-03T12:48:56;150774.53;;;13.14;100.00
12358;BME280;6243;51.244;6.774;2023-02-03T12:51:32;150787.22;;;13.19;100.00
12358;BME280;6243;51.244;6.774;2023-02-03T12:54:03;150798.69;;;13.23;100.00
12358;BME280;6243;51.244;6.774;2023-02-03T12:56:36;150808.91;;;13.27;100.00
12358;BME280;6243;51.244;6.774;2023-02-03T12:59:05;150821.66;;;13.32;100.00
12358;BME280;6243;51.244;6.774;2023-02-03T13:01:37;150807.63;;;13.27;100.00
12358;BME280;6243;51.244;6.774;2023-02-03T13:04:09;150829.28;;;13.35;100.00